sensor_id;sensor_type;location;lat;lon;timestamp;pressure;altitude;pressure_sealevel;temperature;humidity
52319;BME280;38258;51.148;14.068;2023-03-29T00:01:58;98864.53;;;-1.48;100.00
52319;BME280;38258;51.148;14.068;2023-03-29T00:04:25;98863.59;;;-1.51;100.00
52319;BME280;38258;51.148;14.068;2023-03-29T00:06:54;98859.66;;;-1.38;100.00
52319;BME280;38258;51.148;14.068;2023-03-29T00:09:22;98854.91;;;-1.23;100.00
52319;BME280;38258;51.148;14.068;2023-03-29T00:11:51;98849.84;;;-1.53;100.00
52319;BME280;38258;51.148;14.068;2023-03-29T00:14:18;98843.41;;;-1.37;100.00
52319;BME280;38258;51.148;14.068;2023-03-29T00:16:45;98849.94;;;-1.50;100.00
52319;BME280;38258;51.148;14.068;2023-03-29T00:19:12;98839.38;;;-1.29;100.00
52319;BME280;38258;51.148;14.068;2023-03-29T00:21:40;98836.75;;;-1.31;100.00
52319;BME280;38258;51.148;14.068;2023-03-29T00:24:08;98830.53;;;-1.07;100.00
52319;BME280;38258;51.148;14.068;2023-03-29T00:26:35;98825.72;;;-0.94;100.00
52319;BME280;38258;51.148;14.068;2023-03-29T00:29:02;98827.19;;;-1.03;100.00
52319;BME280;38258;51.148;14.068;2023-03-29T00:31:28;98815.63;;;-1.22;100.00
52319;BME280;38258;51.148;14.068;2023-03-29T00:33:56;98832.63;;;-0.92;100.00
52319;BME280;38258;51.148;14.068;2023-03-29T00:36:22;98826.41;;;-1.00;100.00
52319;BME280;38258;51.148;14.068;2023-03-29T00:38:49;98825.47;;;-1.04;100.00
52319;BME280;38258;51.148;14.068;2023-03-29T00:41:17;98820.31;;;-1.05;100.00
52319;BME280;38258;51.148;14.068;2023-03-29T00:43:55;98818.78;;;-0.97;100.00
52319;BME280;38258;51.148;14.068;2023-03-29T00:46:22;98828.84;;;-0.71;100.00
52319;BME280;38258;51.148;14.068;2023-03-29T00:48:52;98817.84;;;-0.65;100.00
52319;BME280;38258;51.148;14.068;2023-03-29T00:51:21;98817.13;;;-0.60;100.00
52319;BME280;38258;51.148;14.068;2023-03-29T00:53:54;98810.59;;;-0.82;100.00
52319;BME280;38258;51.148;14.068;2023-03-29T00:56:25;98796.22;;;-0.75;100.00
52319;BME280;38258;51.148;14.068;2023-03-29T00:58:57;98803.38;;;-0.60;100.00
52319;BME280;38258;51.148;14.068;2023-03-29T01:01:30;98806.84;;;-0.58;100.00
52319;BME280;38258;51.148;14.068;2023-03-29T01:04:02;98788.97;;;-0.55;100.00
52319;BME280;38258;51.148;14.068;2023-03-29T01:06:33;98786.41;;;-0.53;100.00
52319;BME280;38258;51.148;14.068;2023-03-29T01:09:07;98797.28;;;-0.65;100.00
52319;BME280;38258;51.148;14.068;2023-03-29T01:11:41;98793.94;;;-0.63;100.00
52319;BME280;38258;51.148;14.068;2023-03-29T01:14:15;98797.72;;;-0.83;100.00
52319;BME280;38258;51.148;14.068;2023-03-29T01:16:44;98793.69;;;-0.72;100.00
52319;BME280;38258;51.148;14.068;2023-03-29T01:19:14;98782.16;;;-0.90;100.00
52319;BME280;38258;51.148;14.068;2023-03-29T01:21:48;98783.72;;;-0.96;100.00
52319;BME280;38258;51.148;14.068;2023-03-29T01:27:14;98757.56;;;-1.17;100.00
52319;BME280;38258;51.148;14.068;2023-03-29T01:29:45;98753.31;;;-1.15;100.00
52319;BME280;38258;51.148;14.068;2023-03-29T01:32:16;98745.94;;;-1.36;100.00
52319;BME280;38258;51.148;14.068;2023-03-29T01:34:49;98745.50;;;-1.53;100.00
52319;BME280;38258;51.148;14.068;2023-03-29T01:37:22;98740.44;;;-1.51;100.00
52319;BME280;38258;51.148;14.068;2023-03-29T01:39:53;98739.75;;;-1.44;100.00
52319;BME280;38258;51.148;14.068;2023-03-29T01:42:35;98740.78;;;-1.37;100.00
52319;BME280;38258;51.148;14.068;2023-03-29T01:45:10;98734.47;;;-1.15;100.00
52319;BME280;38258;51.148;14.068;2023-03-29T01:47:44;98732.97;;;-1.07;100.00
52319;BME280;38258;51.148;14.068;2023-03-29T01:50:15;98735.72;;;-0.99;100.00
52319;BME280;38258;51.148;14.068;2023-03-29T01:52:47;98722.19;;;-0.92;100.00
52319;BME280;38258;51.148;14.068;2023-03-29T01:55:20;98727.34;;;-0.92;100.00
52319;BME280;38258;51.148;14.068;2023-03-29T01:57:49;98722.19;;;-0.92;100.00
52319;BME280;38258;51.148;14.068;2023-03-29T02:00:22;98724.22;;;-0.77;100.00
52319;BME280;38258;51.148;14.068;2023-03-29T02:02:54;98692.22;;;-0.93;100.00
52319;BME280;38258;51.148;14.068;2023-03-29T02:05:26;98703.56;;;-0.81;100.00
52319;BME280;38258;51.148;14.068;2023-03-29T02:07:58;98723.50;;;-0.71;100.00
52319;BME280;38258;51.148;14.068;2023-03-29T02:10:26;98715.84;;;-0.69;100.00
52319;BME280;38258;51.148;14.068;2023-03-29T02:12:53;98707.25;;;-0.72;100.00
52319;BME280;38258;51.148;14.068;2023-03-29T02:15:22;98712.34;;;-0.73;100.00
52319;BME280;38258;51.148;14.068;2023-03-29T02:17:49;98703.84;;;-0.69;100.00
52319;BME280;38258;51.148;14.068;2023-03-29T02:20:19;98714.22;;;-0.64;100.00
52319;BME280;38258;51.148;14.068;2023-03-29T02:22:54;98704.91;;;-0.61;100.00
52319;BME280;38258;51.148;14.068;2023-03-29T02:25:24;98711.63;;;-0.66;100.00
52319;BME280;38258;51.148;14.068;2023-03-29T02:27:52;98698.59;;;-0.75;100.00
52319;BME280;38258;51.148;14.068;2023-03-29T02:30:19;98701.16;;;-0.75;100.00
52319;BME280;38258;51.148;14.068;2023-03-29T02:32:52;98686.06;;;-1.00;100.00
52319;BME280;38258;51.148;14.068;2023-03-29T02:35:28;98696.78;;;-0.79;100.00
52319;BME280;38258;51.148;14.068;2023-03-29T02:38:00;98692.94;;;-0.98;100.00
52319;BME280;38258;51.148;14.068;2023-03-29T02:40:28;98688.66;;;-0.98;100.00
52319;BME280;38258;51.148;14.068;2023-03-29T02:42:56;98689.91;;;-0.80;100.00
52319;BME280;38258;51.148;14.068;2023-03-29T02:45:24;98688.81;;;-0.92;100.00
52319;BME280;38258;51.148;14.068;2023-03-29T02:47:55;98683.69;;;-0.92;100.00
52319;BME280;38258;51.148;14.068;2023-03-29T02:50:24;98682.34;;;-0.74;100.00
52319;BME280;38258;51.148;14.068;2023-03-29T02:52:58;98678.72;;;-0.82;100.00
52319;BME280;38258;51.148;14.068;2023-03-29T02:55:27;98677.06;;;-0.80;100.00
52319;BME280;38258;51.148;14.068;2023-03-29T02:57:59;98658.09;;;-0.46;100.00
52319;BME280;38258;51.148;14.068;2023-03-29T03:00:28;98650.13;;;-0.58;100.00
52319;BME280;38258;51.148;14.068;2023-03-29T03:02:56;98645.88;;;-0.58;100.00
52319;BME280;38258;51.148;14.068;2023-03-29T03:05:24;98639.94;;;-0.55;100.00
52319;BME280;38258;51.148;14.068;2023-03-29T03:07:51;98631.31;;;-0.57;100.00
52319;BME280;38258;51.148;14.068;2023-03-29T03:10:18;98629.50;;;-0.61;100.00
52319;BME280;38258;51.148;14.068;2023-03-29T03:12:44;98621.19;;;-0.49;100.00
52319;BME280;38258;51.148;14.068;2023-03-29T03:15:11;98613.03;;;-0.71;100.00
52319;BME280;38258;51.148;14.068;2023-03-29T03:17:39;98617.53;;;-0.61;100.00
52319;BME280;38258;51.148;14.068;2023-03-29T03:20:10;98618.38;;;-0.62;100.00
52319;BME280;38258;51.148;14.068;2023-03-29T03:22:40;98571.94;;;-0.71;100.00
52319;BME280;38258;51.148;14.068;2023-03-29T03:25:07;98574.03;;;-0.94;100.00
52319;BME280;38258;51.148;14.068;2023-03-29T03:27:36;98617.78;;;-0.48;100.00
52319;BME280;38258;51.148;14.068;2023-03-29T03:30:05;98610.53;;;-0.68;100.00
52319;BME280;38258;51.148;14.068;2023-03-29T03:32:47;98609.16;;;-0.50;100.00
52319;BME280;38258;51.148;14.068;2023-03-29T03:35:35;98613.41;;;-0.54;100.00
52319;BME280;38258;51.148;14.068;2023-03-29T03:38:02;98613.59;;;-0.43;100.00
52319;BME280;38258;51.148;14.068;2023-03-29T03:40:30;98611.63;;;-0.57;100.00
52319;BME280;38258;51.148;14.068;2023-03-29T03:42:56;98609.38;;;-0.39;100.00
52319;BME280;38258;51.148;14.068;2023-03-29T03:45:23;98608.59;;;-0.35;100.00
52319;BME280;38258;51.148;14.068;2023-03-29T03:48:12;98594.66;;;-0.48;100.00
52319;BME280;38258;51.148;14.068;2023-03-29T03:50:50;98587.78;;;-0.49;100.00
52319;BME280;38258;51.148;14.068;2023-03-29T03:53:17;98603.41;;;-0.37;100.00
52319;BME280;38258;51.148;14.068;2023-03-29T03:56:02;98600.19;;;-0.26;100.00
52319;BME280;38258;51.148;14.068;2023-03-29T03:58:35;98611.41;;;-0.23;100.00
52319;BME280;38258;51.148;14.068;2023-03-29T04:01:02;98604.69;;;-0.15;100.00
52319;BME280;38258;51.148;14.068;2023-03-29T04:03:37;98607.34;;;-0.10;100.00
52319;BME280;38258;51.148;14.068;2023-03-29T04:06:06;98587.38;;;-0.25;100.00
52319;BME280;38258;51.148;14.068;2023-03-29T04:08:52;98604.69;;;-0.15;100.00
52319;BME280;38258;51.148;14.068;2023-03-29T04:11:40;98609.00;;;-0.13;100.00
52319;BME280;38258;51.148;14.068;2023-03-29T04:14:07;98607.44;;;-0.07;100.00
52319;BME280;38258;51.148;14.068;2023-03-29T04:17:00;98602.09;;;-0.16;100.00
52319;BME280;38258;51.148;14.068;2023-03-29T04:19:47;98606.50;;;-0.10;100.00
52319;BME280;38258;51.148;14.068;2023-03-29T04:22:17;98594.34;;;-0.18;100.00
52319;BME280;38258;51.148;14.068;2023-03-29T04:24:44;98597.06;;;-0.10;100.00
52319;BME280;38258;51.148;14.068;2023-03-29T04:27:34;98572.75;;;-0.27;100.00
52319;BME280;38258;51.148;14.068;2023-03-29T04:30:07;98604.72;;;-0.13;100.00
52319;BME280;38258;51.148;14.068;2023-03-29T04:32:58;98565.84;;;-0.32;100.00
52319;BME280;38258;51.148;14.068;2023-03-29T04:35:24;98597.91;;;-0.11;100.00
52319;BME280;38258;51.148;14.068;2023-03-29T04:37:52;98579.69;;;-0.23;100.00
52319;BME280;38258;51.148;14.068;2023-03-29T04:40:21;98571.16;;;-0.21;100.00
52319;BME280;38258;51.148;14.068;2023-03-29T04:43:00;98594.63;;;-0.02;100.00
52319;BME280;38258;51.148;14.068;2023-03-29T04:45:29;98577.09;;;-0.23;100.00
52319;BME280;38258;51.148;14.068;2023-03-29T04:48:22;98586.13;;;0.02;100.00
52319;BME280;38258;51.148;14.068;2023-03-29T04:50:48;98587.78;;;-0.02;100.00
52319;BME280;38258;51.148;14.068;2023-03-29T04:53:19;98595.59;;;0.05;100.00
52319;BME280;38258;51.148;14.068;2023-03-29T04:55:46;98576.56;;;-0.07;100.00
52319;BME280;38258;51.148;14.068;2023-03-29T04:58:20;98594.75;;;0.04;100.00
52319;BME280;38258;51.148;14.068;2023-03-29T05:00:46;98581.00;;;0.02;100.00
52319;BME280;38258;51.148;14.068;2023-03-29T05:03:21;98580.16;;;0.03;100.00
52319;BME280;38258;51.148;14.068;2023-03-29T05:06:01;98584.47;;;0.04;100.00
52319;BME280;38258;51.148;14.068;2023-03-29T05:08:32;98557.72;;;-0.04;100.00
52319;BME280;38258;51.148;14.068;2023-03-29T05:11:09;98565.69;;;0.10;100.00
52319;BME280;38258;51.148;14.068;2023-03-29T05:13:36;98579.28;;;0.01;100.00
52319;BME280;38258;51.148;14.068;2023-03-29T05:16:04;98582.09;;;0.17;100.00
52319;BME280;38258;51.148;14.068;2023-03-29T05:18:31;98570.97;;;0.18;100.00
52319;BME280;38258;51.148;14.068;2023-03-29T05:20:58;98568.06;;;-0.01;100.00
52319;BME280;38258;51.148;14.068;2023-03-29T05:23:26;98568.41;;;0.19;100.00
52319;BME280;38258;51.148;14.068;2023-03-29T05:26:32;98565.75;;;0.13;100.00
52319;BME280;38258;51.148;14.068;2023-03-29T05:28:58;98562.41;;;0.19;100.00
52319;BME280;38258;51.148;14.068;2023-03-29T05:31:25;98560.69;;;0.19;100.00
52319;BME280;38258;51.148;14.068;2023-03-29T05:33:53;98546.00;;;0.12;100.00
52319;BME280;38258;51.148;14.068;2023-03-29T05:36:20;98562.59;;;0.33;100.00
52319;BME280;38258;51.148;14.068;2023-03-29T05:38:48;98561.72;;;0.31;100.00
52319;BME280;38258;51.148;14.068;2023-03-29T05:41:17;98551.34;;;0.26;100.00
52319;BME280;38258;51.148;14.068;2023-03-29T05:44:04;98550.63;;;0.33;100.00
52319;BME280;38258;51.148;14.068;2023-03-29T05:46:33;98543.91;;;0.43;100.00
52319;BME280;38258;51.148;14.068;2023-03-29T05:49:02;98546.44;;;0.40;100.00
52319;BME280;38258;51.148;14.068;2023-03-29T05:51:46;98540.44;;;0.41;100.00
52319;BME280;38258;51.148;14.068;2023-03-29T05:54:13;98549.09;;;0.45;100.00
52319;BME280;38258;51.148;14.068;2023-03-29T05:56:40;98517.91;;;0.24;100.00
52319;BME280;38258;51.148;14.068;2023-03-29T05:59:09;98557.91;;;0.62;100.00
52319;BME280;38258;51.148;14.068;2023-03-29T06:01:35;98555.41;;;0.67;100.00
52319;BME280;38258;51.148;14.068;2023-03-29T06:04:05;98527.81;;;0.58;100.00
52319;BME280;38258;51.148;14.068;2023-03-29T06:06:55;98533.97;;;0.69;100.00
52319;BME280;38258;51.148;14.068;2023-03-29T06:09:22;98514.88;;;0.55;100.00
52319;BME280;38258;51.148;14.068;2023-03-29T06:11:55;98547.88;;;0.84;100.00
52319;BME280;38258;51.148;14.068;2023-03-29T06:14:46;98556.59;;;0.92;100.00
52319;BME280;38258;51.148;14.068;2023-03-29T06:17:26;98553.25;;;0.99;100.00
52319;BME280;38258;51.148;14.068;2023-03-29T06:19:53;98518.69;;;0.82;100.00
52319;BME280;38258;51.148;14.068;2023-03-29T06:22:23;98512.63;;;0.78;100.00
52319;BME280;38258;51.148;14.068;2023-03-29T06:24:50;98553.19;;;0.93;100.00
52319;BME280;38258;51.148;14.068;2023-03-29T06:27:23;98549.88;;;1.04;100.00
52319;BME280;38258;51.148;14.068;2023-03-29T06:29:53;98549.88;;;1.05;100.00
52319;BME280;38258;51.148;14.068;2023-03-29T06:32:20;98498.09;;;0.82;100.00
52319;BME280;38258;51.148;14.068;2023-03-29T06:34:57;98543.00;;;1.04;100.00
52319;BME280;38258;51.148;14.068;2023-03-29T06:37:34;98543.84;;;1.03;100.00
52319;BME280;38258;51.148;14.068;2023-03-29T06:40:10;98555.88;;;1.04;100.00
52319;BME280;38258;51.148;14.068;2023-03-29T06:42:42;98544.75;;;1.07;100.00
52319;BME280;38258;51.148;14.068;2023-03-29T06:45:44;98544.69;;;1.02;100.00
52319;BME280;38258;51.148;14.068;2023-03-29T06:48:19;98544.84;;;1.15;100.00
52319;BME280;38258;51.148;14.068;2023-03-29T06:50:46;98532.78;;;1.10;100.00
52319;BME280;38258;51.148;14.068;2023-03-29T06:53:14;98544.88;;;1.16;100.00
52319;BME280;38258;51.148;14.068;2023-03-29T06:55:43;98537.25;;;1.25;100.00
52319;BME280;38258;51.148;14.068;2023-03-29T06:58:36;98546.94;;;1.47;100.00
52319;BME280;38258;51.148;14.068;2023-03-29T07:01:13;98530.53;;;1.38;100.00
52319;BME280;38258;51.148;14.068;2023-03-29T07:03:48;98524.53;;;1.39;100.00
52319;BME280;38258;51.148;14.068;2023-03-29T07:06:19;98552.28;;;1.67;100.00
52319;BME280;38258;51.148;14.068;2023-03-29T07:08:47;98554.09;;;1.74;100.00
52319;BME280;38258;51.148;14.068;2023-03-29T07:11:33;98559.31;;;1.83;100.00
52319;BME280;38258;51.148;14.068;2023-03-29T07:14:12;98560.88;;;1.66;100.00
52319;BME280;38258;51.148;14.068;2023-03-29T07:16:40;98551.44;;;1.66;100.00
52319;BME280;38258;51.148;14.068;2023-03-29T07:19:14;98547.25;;;1.76;100.00
52319;BME280;38258;51.148;14.068;2023-03-29T07:22:03;98536.06;;;1.79;100.00
52319;BME280;38258;51.148;14.068;2023-03-29T07:24:39;98523.06;;;1.65;100.00
52319;BME280;38258;51.148;14.068;2023-03-29T07:27:06;98542.91;;;1.74;100.00
52319;BME280;38258;51.148;14.068;2023-03-29T07:29:33;98395.09;;;0.83;100.00
52319;BME280;38258;51.148;14.068;2023-03-29T07:32:02;98552.63;;;2.01;100.00
52319;BME280;38258;51.148;14.068;2023-03-29T07:34:41;98537.81;;;1.80;100.00
52319;BME280;38258;51.148;14.068;2023-03-29T07:37:14;98561.22;;;2.02;100.00
52319;BME280;38258;51.148;14.068;2023-03-29T07:39:43;98538.56;;;1.68;100.00
52319;BME280;38258;51.148;14.068;2023-03-29T07:42:29;98549.66;;;1.61;100.00
52319;BME280;38258;51.148;14.068;2023-03-29T07:44:57;98558.13;;;1.49;100.00
52319;BME280;38258;51.148;14.068;2023-03-29T07:47:30;98547.78;;;1.46;100.00
52319;BME280;38258;51.148;14.068;2023-03-29T07:49:57;98549.47;;;1.44;100.00
52319;BME280;38258;51.148;14.068;2023-03-29T07:52:24;98559.72;;;1.39;100.00
52319;BME280;38258;51.148;14.068;2023-03-29T07:54:52;98555.31;;;1.27;100.00
52319;BME280;38258;51.148;14.068;2023-03-29T07:57:37;98552.44;;;1.05;100.00
52319;BME280;38258;51.148;14.068;2023-03-29T08:00:05;98535.81;;;0.80;100.00
52319;BME280;38258;51.148;14.068;2023-03-29T08:02:42;98566.66;;;0.75;100.00
52319;BME280;38258;51.148;14.068;2023-03-29T08:05:09;98557.97;;;0.67;100.00
52319;BME280;38258;51.148;14.068;2023-03-29T08:07:48;98536.31;;;0.52;100.00
52319;BME280;38258;51.148;14.068;2023-03-29T08:10:50;98575.78;;;0.53;100.00
52319;BME280;38258;51.148;14.068;2023-03-29T08:13:28;98569.78;;;0.52;100.00
52319;BME280;38258;51.148;14.068;2023-03-29T08:16:28;98569.81;;;0.57;100.00
52319;BME280;38258;51.148;14.068;2023-03-29T08:19:05;98563.88;;;0.60;100.00
52319;BME280;38258;51.148;14.068;2023-03-29T08:21:47;98563.88;;;0.60;100.00
52319;BME280;38258;51.148;14.068;2023-03-29T08:24:14;98560.75;;;0.84;100.00
52319;BME280;38258;51.148;14.068;2023-03-29T08:26:45;98553.88;;;0.81;100.00
52319;BME280;38258;51.148;14.068;2023-03-29T08:29:15;98571.28;;;0.98;100.00
52319;BME280;38258;51.148;14.068;2023-03-29T08:31:42;98556.47;;;0.83;100.00
52319;BME280;38258;51.148;14.068;2023-03-29T08:34:10;98571.19;;;0.93;100.00
52319;BME280;38258;51.148;14.068;2023-03-29T08:36:51;98538.34;;;0.75;100.00
52319;BME280;38258;51.148;14.068;2023-03-29T08:39:25;98560.19;;;1.04;100.00
52319;BME280;38258;51.148;14.068;2023-03-29T08:42:31;98548.28;;;1.13;100.00
52319;BME280;38258;51.148;14.068;2023-03-29T08:45:06;98563.88;;;1.27;100.00
52319;BME280;38258;51.148;14.068;2023-03-29T08:47:41;98556.94;;;1.20;100.00
52319;BME280;38258;51.148;14.068;2023-03-29T08:50:13;98520.66;;;1.03;100.00
52319;BME280;38258;51.148;14.068;2023-03-29T08:52:47;98535.47;;;1.21;100.00
52319;BME280;38258;51.148;14.068;2023-03-29T08:55:31;98548.69;;;1.49;100.00
52319;BME280;38258;51.148;14.068;2023-03-29T08:58:26;98551.50;;;1.73;100.00
52319;BME280;38258;51.148;14.068;2023-03-29T09:00:57;98491.22;;;1.61;100.00
52319;BME280;38258;51.148;14.068;2023-03-29T09:03:29;98532.75;;;1.91;100.00
52319;BME280;38258;51.148;14.068;2023-03-29T09:06:05;98533.66;;;1.94;100.00
52319;BME280;38258;51.148;14.068;2023-03-29T09:08:36;98497.25;;;1.62;100.00
52319;BME280;38258;51.148;14.068;2023-03-29T09:11:16;98543.28;;;2.17;100.00
52319;BME280;38258;51.148;14.068;2023-03-29T09:13:54;98543.19;;;2.08;100.00
52319;BME280;38258;51.148;14.068;2023-03-29T09:16:29;98541.25;;;1.80;100.00
52319;BME280;38258;51.148;14.068;2023-03-29T09:19:05;98538.84;;;1.97;100.00
52319;BME280;38258;51.148;14.068;2023-03-29T09:21:43;98535.25;;;1.83;100.00
52319;BME280;38258;51.148;14.068;2023-03-29T09:24:28;98543.13;;;1.95;100.00
52319;BME280;38258;51.148;14.068;2023-03-29T09:27:06;98538.84;;;1.97;100.00
52319;BME280;38258;51.148;14.068;2023-03-29T09:29:48;98520.84;;;2.05;100.00
52319;BME280;38258;51.148;14.068;2023-03-29T09:32:19;98514.09;;;2.26;100.00
52319;BME280;38258;51.148;14.068;2023-03-29T09:35:02;98527.06;;;2.35;100.00
52319;BME280;38258;51.148;14.068;2023-03-29T09:37:36;98507.25;;;2.33;100.00
52319;BME280;38258;51.148;14.068;2023-03-29T09:40:10;98526.16;;;2.27;100.00
52319;BME280;38258;51.148;14.068;2023-03-29T09:42:49;98534.88;;;2.46;100.00
52319;BME280;38258;51.148;14.068;2023-03-29T09:45:17;98533.03;;;2.28;100.00
52319;BME280;38258;51.148;14.068;2023-03-29T09:47:51;98529.78;;;2.52;100.00
52319;BME280;38258;51.148;14.068;2023-03-29T09:50:21;98530.59;;;2.48;100.00
52319;BME280;38258;51.148;14.068;2023-03-29T09:52:51;98532.28;;;2.42;100.00
52319;BME280;38258;51.148;14.068;2023-03-29T09:55:24;98521.03;;;2.35;100.00
52319;BME280;38258;51.148;14.068;2023-03-29T09:58:19;98525.34;;;2.36;100.00
52319;BME280;38258;51.148;14.068;2023-03-29T10:00:50;98518.47;;;2.33;100.00
52319;BME280;38258;51.148;14.068;2023-03-29T10:03:19;98527.13;;;2.43;100.00
52319;BME280;38258;51.148;14.068;2023-03-29T10:05:59;98527.16;;;2.49;100.00
52319;BME280;38258;51.148;14.068;2023-03-29T10:08:34;98530.56;;;2.45;100.00
52319;BME280;38258;51.148;14.068;2023-03-29T10:11:06;98531.47;;;2.50;100.00
52319;BME280;38258;51.148;14.068;2023-03-29T10:13:35;98509.06;;;2.45;100.00
52319;BME280;38258;51.148;14.068;2023-03-29T10:16:17;98504.78;;;2.48;100.00
52319;BME280;38258;51.148;14.068;2023-03-29T10:18:46;98516.09;;;2.66;100.00
52319;BME280;38258;51.148;14.068;2023-03-29T10:21:17;98494.56;;;2.72;100.00
52319;BME280;38258;51.148;14.068;2023-03-29T10:23:47;98507.63;;;2.95;100.00
52319;BME280;38258;51.148;14.068;2023-03-29T10:26:23;98498.03;;;2.78;100.00
52319;BME280;38258;51.148;14.068;2023-03-29T10:28:53;98496.47;;;3.10;100.00
52319;BME280;38258;51.148;14.068;2023-03-29T10:31:28;98467.97;;;2.90;100.00
52319;BME280;38258;51.148;14.068;2023-03-29T10:33:57;98497.28;;;3.04;100.00
52319;BME280;38258;51.148;14.068;2023-03-29T10:36:28;98481.78;;;3.01;100.00
52319;BME280;38258;51.148;14.068;2023-03-29T10:38:59;98505.09;;;3.17;100.00
52319;BME280;38258;51.148;14.068;2023-03-29T10:41:27;98493.91;;;3.15;100.00
52319;BME280;38258;51.148;14.068;2023-03-29T10:43:55;98462.78;;;2.87;100.00
52319;BME280;38258;51.148;14.068;2023-03-29T10:46:28;98494.75;;;3.12;100.00
52319;BME280;38258;51.148;14.068;2023-03-29T10:48:57;98494.72;;;3.06;100.00
52319;BME280;38258;51.148;14.068;2023-03-29T10:51:26;98483.50;;;2.99;100.00
52319;BME280;38258;51.148;14.068;2023-03-29T10:53:57;98455.94;;;3.01;100.00
52319;BME280;38258;51.148;14.068;2023-03-29T10:56:36;98484.41;;;3.17;100.00
52319;BME280;38258;51.148;14.068;2023-03-29T10:59:22;98476.63;;;3.04;100.00
52319;BME280;38258;51.148;14.068;2023-03-29T11:02:00;98468.00;;;3.02;100.00
52319;BME280;38258;51.148;14.068;2023-03-29T11:04:35;98482.69;;;3.09;100.00
52319;BME280;38258;51.148;14.068;2023-03-29T11:07:21;98480.94;;;3.04;100.00
52319;BME280;38258;51.148;14.068;2023-03-29T11:10:02;98456.75;;;2.85;100.00
52319;BME280;38258;51.148;14.068;2023-03-29T11:12:39;98470.63;;;3.21;100.00
52319;BME280;38258;51.148;14.068;2023-03-29T11:15:32;98440.47;;;3.09;100.00
52319;BME280;38258;51.148;14.068;2023-03-29T11:18:14;98459.47;;;3.42;100.00
52319;BME280;38258;51.148;14.068;2023-03-29T11:20:51;98450.00;;;3.43;100.00
52319;BME280;38258;51.148;14.068;2023-03-29T11:23:27;98456.91;;;3.42;100.00
52319;BME280;38258;51.148;14.068;2023-03-29T11:26:07;98452.59;;;3.46;100.00
52319;BME280;38258;51.148;14.068;2023-03-29T11:28:40;98445.69;;;3.51;100.00
52319;BME280;38258;51.148;14.068;2023-03-29T11:31:17;98445.72;;;3.59;100.00
52319;BME280;38258;51.148;14.068;2023-03-29T11:33:57;98444.88;;;3.71;100.00
52319;BME280;38258;51.148;14.068;2023-03-29T11:36:32;98444.88;;;3.74;100.00
52319;BME280;38258;51.148;14.068;2023-03-29T11:39:14;98442.28;;;3.75;100.00
52319;BME280;38258;51.148;14.068;2023-03-29T11:41:50;98447.44;;;3.64;100.00
52319;BME280;38258;51.148;14.068;2023-03-29T11:44:21;98443.16;;;3.66;100.00
52319;BME280;38258;51.148;14.068;2023-03-29T11:46:54;98424.16;;;3.71;100.00
52319;BME280;38258;51.148;14.068;2023-03-29T11:49:26;98420.72;;;3.76;100.00
52319;BME280;38258;51.148;14.068;2023-03-29T11:51:57;98425.81;;;4.26;100.00
52319;BME280;38258;51.148;14.068;2023-03-29T11:54:29;98398.00;;;4.81;100.00
52319;BME280;38258;51.148;14.068;2023-03-29T11:57:04;98426.44;;;4.92;100.00
52319;BME280;38258;51.148;14.068;2023-03-29T11:59:39;98410.16;;;4.65;100.00
52319;BME280;38258;51.148;14.068;2023-03-29T12:02:13;98427.34;;;4.88;100.00
52319;BME280;38258;51.148;14.068;2023-03-29T12:04:46;98424.78;;;4.85;100.00
52319;BME280;38258;51.148;14.068;2023-03-29T12:07:16;98419.75;;;4.44;100.00
52319;BME280;38258;51.148;14.068;2023-03-29T12:09:47;98420.59;;;4.52;100.00
52319;BME280;38258;51.148;14.068;2023-03-29T12:12:20;98416.25;;;4.58;100.00
52319;BME280;38258;51.148;14.068;2023-03-29T12:14:57;98424.06;;;4.41;100.00
52319;BME280;38258;51.148;14.068;2023-03-29T12:17:29;98413.59;;;4.70;100.00
52319;BME280;38258;51.148;14.068;2023-03-29T12:20:08;98422.16;;;4.89;100.00
52319;BME280;38258;51.148;14.068;2023-03-29T12:22:40;98416.19;;;4.73;100.00
52319;BME280;38258;51.148;14.068;2023-03-29T12:25:11;98408.13;;;5.26;100.00
52319;BME280;38258;51.148;14.068;2023-03-29T12:27:50;98399.44;;;5.30;100.00
52319;BME280;38258;51.148;14.068;2023-03-29T12:30:28;98396.16;;;5.02;100.00
52319;BME280;38258;51.148;14.068;2023-03-29T12:33:07;98408.97;;;5.28;100.00
52319;BME280;38258;51.148;14.068;2023-03-29T12:36:02;98406.34;;;5.31;100.00
52319;BME280;38258;51.148;14.068;2023-03-29T12:39:12;98387.25;;;5.40;100.00
52319;BME280;38258;51.148;14.068;2023-03-29T12:42:14;98384.66;;;5.45;100.00
52319;BME280;38258;51.148;14.068;2023-03-29T12:45:02;98383.97;;;5.18;100.00
52319;BME280;38258;51.148;14.068;2023-03-29T12:47:43;98383.91;;;5.26;100.00
52319;BME280;38258;51.148;14.068;2023-03-29T12:50:22;98385.41;;;5.58;100.00
52319;BME280;38258;51.148;14.068;2023-03-29T12:52:50;98388.88;;;5.57;100.00
52319;BME280;38258;51.148;14.068;2023-03-29T12:55:27;98382.09;;;5.37;100.00
52319;BME280;38258;51.148;14.068;2023-03-29T12:58:00;98371.72;;;5.35;100.00
52319;BME280;38258;51.148;14.068;2023-03-29T13:00:32;98374.31;;;5.38;100.00
52319;BME280;38258;51.148;14.068;2023-03-29T13:03:19;98379.34;;;5.57;100.00
52319;BME280;38258;51.148;14.068;2023-03-29T13:05:57;98361.97;;;5.69;100.00
52319;BME280;38258;51.148;14.068;2023-03-29T13:08:26;98371.25;;;5.93;100.00
52319;BME280;38258;51.148;14.068;2023-03-29T13:10:54;98362.53;;;6.02;100.00
52319;BME280;38258;51.148;14.068;2023-03-29T13:13:25;98367.72;;;6.03;100.00
52319;BME280;38258;51.148;14.068;2023-03-29T13:15:54;98354.84;;;5.88;100.00
52319;BME280;38258;51.148;14.068;2023-03-29T13:18:31;98345.91;;;6.20;100.00
52319;BME280;38258;51.148;14.068;2023-03-29T13:21:08;98350.69;;;6.53;100.00
52319;BME280;38258;51.148;14.068;2023-03-29T13:23:45;98337.63;;;6.59;100.00